Plato, Minnesota
Current Conditions -  °F | °C
As of 12:34 PM on Monday 26 Jan 2015 (Local Time) from KGYL Reporting Station
Broken Clouds Broken Clouds  
Wind Chill: 32°   Ceiling: 4600
Heat Index: 40°   Visibility: 10mi
Dew Point: 36°   Wind: 14mph
Humidity: 84%   Direction: 280°W
Pressure: 29.75"   Gusts: NA
Location:  44.77°N, 94.04°W
Report Text: KGYL 261834Z AUTO 28012KT 10SM BKN046 05/02 A2975 RMK AO2 T00450020
Loading
Personal Weather Stations






























Interactive Weather Map New forecast layout! Learn more

10-Day Weather Forecast

Advertisements
Track Severe Weather on mobile